Arnold, Missouri
Current Conditions -  °F | °C
As of 6:24 AM on Saturday 25 Oct 2014 (Local Time) from KCPS Reporting Station
Haze Haze  
Wind Chill: 53°   Ceiling: Unl
Heat Index: 53°   Visibility: 5mi
Dew Point: 53°   Wind: 0mph
Humidity: 100%   Direction: NA
Pressure: 30.01"   Gusts: NA
Location:  38.42°N, 90.37°W
Report Text: KCPS 251124Z 00000KT 5SM BR CLR 12/12 A3001 RMK AO2 T01170117
Loading
Personal Weather Stations






























Interactive Weather Map
Tropical Storm Tracking
New forecast layout! Learn more

10-Day Weather Forecast

Advertisements
Track Severe Weather on mobile